sensor_id;sensor_type;location;lat;lon;timestamp;P1;durP1;ratioP1;P2;durP2;ratioP2
10867;SDS011;62667;48.698;8.762;2024-02-21T00:02:05;6.07;;;3.63;;
10867;SDS011;62667;48.698;8.762;2024-02-21T00:04:31;6.03;;;2.93;;
10867;SDS011;62667;48.698;8.762;2024-02-21T00:06:58;9.93;;;3.40;;
10867;SDS011;62667;48.698;8.762;2024-02-21T00:09:30;8.73;;;3.47;;
10867;SDS011;62667;48.698;8.762;2024-02-21T00:12:03;5.87;;;3.30;;
10867;SDS011;62667;48.698;8.762;2024-02-21T00:14:30;7.43;;;3.07;;
10867;SDS011;62667;48.698;8.762;2024-02-21T00:16:58;5.77;;;3.17;;
10867;SDS011;62667;48.698;8.762;2024-02-21T00:19:24;4.13;;;2.93;;
10867;SDS011;62667;48.698;8.762;2024-02-21T00:21:51;6.63;;;3.33;;
10867;SDS011;62667;48.698;8.762;2024-02-21T00:24:17;3.97;;;3.00;;
10867;SDS011;62667;48.698;8.762;2024-02-21T00:26:44;16.83;;;8.43;;
10867;SDS011;62667;48.698;8.762;2024-02-21T00:29:12;8.17;;;4.20;;
10867;SDS011;62667;48.698;8.762;2024-02-21T00:31:42;15.07;;;4.93;;
10867;SDS011;62667;48.698;8.762;2024-02-21T00:34:13;6.50;;;3.53;;
10867;SDS011;62667;48.698;8.762;2024-02-21T00:36:42;7.57;;;3.13;;
10867;SDS011;62667;48.698;8.762;2024-02-21T00:39:08;5.43;;;2.70;;
10867;SDS011;62667;48.698;8.762;2024-02-21T00:41:34;4.23;;;2.50;;
10867;SDS011;62667;48.698;8.762;2024-02-21T00:44:03;4.20;;;2.73;;
10867;SDS011;62667;48.698;8.762;2024-02-21T00:46:37;7.97;;;3.33;;
10867;SDS011;62667;48.698;8.762;2024-02-21T00:49:08;8.77;;;3.10;;
10867;SDS011;62667;48.698;8.762;2024-02-21T00:51:34;6.03;;;3.30;;
10867;SDS011;62667;48.698;8.762;2024-02-21T00:54:01;3.30;;;2.50;;
10867;SDS011;62667;48.698;8.762;2024-02-21T00:56:27;8.10;;;2.83;;
10867;SDS011;62667;48.698;8.762;2024-02-21T00:58:55;4.10;;;2.87;;
10867;SDS011;62667;48.698;8.762;2024-02-21T01:01:26;5.00;;;2.97;;
10867;SDS011;62667;48.698;8.762;2024-02-21T01:03:56;5.53;;;3.10;;
10867;SDS011;62667;48.698;8.762;2024-02-21T01:06:23;4.33;;;2.70;;
10867;SDS011;62667;48.698;8.762;2024-02-21T01:08:49;8.83;;;2.97;;
10867;SDS011;62667;48.698;8.762;2024-02-21T01:11:16;5.63;;;3.17;;
10867;SDS011;62667;48.698;8.762;2024-02-21T01:13:43;13.90;;;3.40;;
10867;SDS011;62667;48.698;8.762;2024-02-21T01:16:12;3.90;;;2.93;;
10867;SDS011;62667;48.698;8.762;2024-02-21T01:18:41;5.00;;;3.07;;
10867;SDS011;62667;48.698;8.762;2024-02-21T01:21:11;5.30;;;3.00;;
10867;SDS011;62667;48.698;8.762;2024-02-21T01:23:38;4.57;;;3.00;;
10867;SDS011;62667;48.698;8.762;2024-02-21T01:26:13;4.27;;;2.60;;
10867;SDS011;62667;48.698;8.762;2024-02-21T01:28:40;6.47;;;2.97;;
10867;SDS011;62667;48.698;8.762;2024-02-21T01:31:07;7.67;;;2.83;;
10867;SDS011;62667;48.698;8.762;2024-02-21T01:33:33;8.50;;;3.13;;
10867;SDS011;62667;48.698;8.762;2024-02-21T01:36:00;7.60;;;3.00;;
10867;SDS011;62667;48.698;8.762;2024-02-21T01:38:28;7.20;;;3.10;;
10867;SDS011;62667;48.698;8.762;2024-02-21T01:41:00;6.50;;;2.97;;
10867;SDS011;62667;48.698;8.762;2024-02-21T01:43:27;6.30;;;3.40;;
10867;SDS011;62667;48.698;8.762;2024-02-21T01:45:54;8.20;;;2.80;;
10867;SDS011;62667;48.698;8.762;2024-02-21T01:48:22;5.60;;;2.87;;
10867;SDS011;62667;48.698;8.762;2024-02-21T01:50:50;6.80;;;3.10;;
10867;SDS011;62667;48.698;8.762;2024-02-21T01:53:22;4.80;;;3.00;;
10867;SDS011;62667;48.698;8.762;2024-02-21T01:55:53;8.70;;;3.37;;
10867;SDS011;62667;48.698;8.762;2024-02-21T01:58:23;6.33;;;3.13;;
10867;SDS011;62667;48.698;8.762;2024-02-21T02:00:50;6.37;;;2.67;;
10867;SDS011;62667;48.698;8.762;2024-02-21T02:03:17;5.93;;;2.60;;
10867;SDS011;62667;48.698;8.762;2024-02-21T02:05:47;6.33;;;2.67;;
10867;SDS011;62667;48.698;8.762;2024-02-21T02:08:15;6.47;;;3.00;;
10867;SDS011;62667;48.698;8.762;2024-02-21T02:10:43;4.00;;;2.80;;
10867;SDS011;62667;48.698;8.762;2024-02-21T02:13:12;6.40;;;3.10;;
10867;SDS011;62667;48.698;8.762;2024-02-21T02:15:40;5.27;;;2.67;;
10867;SDS011;62667;48.698;8.762;2024-02-21T02:18:08;6.10;;;3.00;;
10867;SDS011;62667;48.698;8.762;2024-02-21T02:20:40;7.43;;;3.03;;
10867;SDS011;62667;48.698;8.762;2024-02-21T02:23:08;10.53;;;3.37;;
10867;SDS011;62667;48.698;8.762;2024-02-21T02:25:38;9.60;;;3.10;;
10867;SDS011;62667;48.698;8.762;2024-02-21T02:28:06;6.30;;;2.90;;
10867;SDS011;62667;48.698;8.762;2024-02-21T02:30:35;4.40;;;2.77;;
10867;SDS011;62667;48.698;8.762;2024-02-21T02:33:02;6.87;;;2.97;;
10867;SDS011;62667;48.698;8.762;2024-02-21T02:35:29;8.40;;;2.90;;
10867;SDS011;62667;48.698;8.762;2024-02-21T02:37:56;6.23;;;3.10;;
10867;SDS011;62667;48.698;8.762;2024-02-21T02:40:22;7.97;;;3.30;;
10867;SDS011;62667;48.698;8.762;2024-02-21T02:42:53;5.90;;;2.80;;
10867;SDS011;62667;48.698;8.762;2024-02-21T02:45:21;5.57;;;3.10;;
10867;SDS011;62667;48.698;8.762;2024-02-21T02:47:51;6.70;;;2.83;;
10867;SDS011;62667;48.698;8.762;2024-02-21T02:50:19;6.43;;;2.93;;
10867;SDS011;62667;48.698;8.762;2024-02-21T02:52:46;7.33;;;2.80;;
10867;SDS011;62667;48.698;8.762;2024-02-21T02:55:14;8.93;;;3.27;;
10867;SDS011;62667;48.698;8.762;2024-02-21T02:57:43;4.43;;;2.30;;
10867;SDS011;62667;48.698;8.762;2024-02-21T03:00:12;3.60;;;2.27;;
10867;SDS011;62667;48.698;8.762;2024-02-21T03:02:41;4.43;;;2.47;;
10867;SDS011;62667;48.698;8.762;2024-02-21T03:05:13;7.73;;;2.97;;
10867;SDS011;62667;48.698;8.762;2024-02-21T03:07:41;6.13;;;2.83;;
10867;SDS011;62667;48.698;8.762;2024-02-21T03:10:13;4.27;;;2.50;;
10867;SDS011;62667;48.698;8.762;2024-02-21T03:12:44;6.53;;;2.97;;
10867;SDS011;62667;48.698;8.762;2024-02-21T03:15:13;5.03;;;2.40;;
10867;SDS011;62667;48.698;8.762;2024-02-21T03:17:40;6.60;;;2.87;;
10867;SDS011;62667;48.698;8.762;2024-02-21T03:20:07;7.07;;;2.67;;
10867;SDS011;62667;48.698;8.762;2024-02-21T03:22:36;7.07;;;2.60;;
10867;SDS011;62667;48.698;8.762;2024-02-21T03:25:05;4.67;;;2.20;;
10867;SDS011;62667;48.698;8.762;2024-02-21T03:27:32;4.33;;;2.50;;
10867;SDS011;62667;48.698;8.762;2024-02-21T03:29:59;4.30;;;2.70;;
10867;SDS011;62667;48.698;8.762;2024-02-21T03:32:31;3.97;;;2.57;;
10867;SDS011;62667;48.698;8.762;2024-02-21T03:34:57;6.57;;;2.57;;
10867;SDS011;62667;48.698;8.762;2024-02-21T03:37:24;9.90;;;2.47;;
10867;SDS011;62667;48.698;8.762;2024-02-21T03:39:57;8.73;;;2.70;;
10867;SDS011;62667;48.698;8.762;2024-02-21T03:42:24;7.30;;;2.43;;
10867;SDS011;62667;48.698;8.762;2024-02-21T03:44:50;7.17;;;2.97;;
10867;SDS011;62667;48.698;8.762;2024-02-21T03:47:17;4.73;;;2.70;;
10867;SDS011;62667;48.698;8.762;2024-02-21T03:49:51;5.77;;;2.50;;
10867;SDS011;62667;48.698;8.762;2024-02-21T03:52:17;4.80;;;2.60;;
10867;SDS011;62667;48.698;8.762;2024-02-21T03:54:44;7.43;;;2.40;;
10867;SDS011;62667;48.698;8.762;2024-02-21T03:57:10;6.90;;;2.70;;
10867;SDS011;62667;48.698;8.762;2024-02-21T03:59:37;6.13;;;2.30;;
10867;SDS011;62667;48.698;8.762;2024-02-21T04:02:05;5.10;;;2.83;;
10867;SDS011;62667;48.698;8.762;2024-02-21T04:04:34;4.90;;;2.60;;
10867;SDS011;62667;48.698;8.762;2024-02-21T04:07:03;2.67;;;2.13;;
10867;SDS011;62667;48.698;8.762;2024-02-21T04:09:31;9.23;;;2.60;;
10867;SDS011;62667;48.698;8.762;2024-02-21T04:11:58;3.67;;;2.60;;
10867;SDS011;62667;48.698;8.762;2024-02-21T04:14:25;6.30;;;2.47;;
10867;SDS011;62667;48.698;8.762;2024-02-21T04:16:51;4.53;;;2.57;;
10867;SDS011;62667;48.698;8.762;2024-02-21T04:19:22;5.17;;;2.60;;
10867;SDS011;62667;48.698;8.762;2024-02-21T04:21:51;5.97;;;2.90;;
10867;SDS011;62667;48.698;8.762;2024-02-21T04:24:19;10.93;;;3.10;;
10867;SDS011;62667;48.698;8.762;2024-02-21T04:26:46;5.70;;;2.80;;
10867;SDS011;62667;48.698;8.762;2024-02-21T04:29:12;6.17;;;2.87;;
10867;SDS011;62667;48.698;8.762;2024-02-21T04:31:39;5.73;;;3.10;;
10867;SDS011;62667;48.698;8.762;2024-02-21T04:34:06;6.57;;;2.80;;
10867;SDS011;62667;48.698;8.762;2024-02-21T04:36:32;7.50;;;3.03;;
10867;SDS011;62667;48.698;8.762;2024-02-21T04:38:59;6.50;;;3.07;;
10867;SDS011;62667;48.698;8.762;2024-02-21T04:41:27;4.33;;;2.90;;
10867;SDS011;62667;48.698;8.762;2024-02-21T04:43:58;3.83;;;2.43;;
10867;SDS011;62667;48.698;8.762;2024-02-21T04:46:25;9.53;;;3.03;;
10867;SDS011;62667;48.698;8.762;2024-02-21T04:48:51;4.50;;;2.97;;
10867;SDS011;62667;48.698;8.762;2024-02-21T04:51:18;8.63;;;3.27;;
10867;SDS011;62667;48.698;8.762;2024-02-21T04:53:44;5.47;;;2.40;;
10867;SDS011;62667;48.698;8.762;2024-02-21T04:56:15;6.90;;;2.90;;
10867;SDS011;62667;48.698;8.762;2024-02-21T04:58:43;4.00;;;2.77;;
10867;SDS011;62667;48.698;8.762;2024-02-21T05:01:14;4.57;;;2.93;;
10867;SDS011;62667;48.698;8.762;2024-02-21T05:03:41;6.27;;;3.27;;
10867;SDS011;62667;48.698;8.762;2024-02-21T05:06:09;8.27;;;2.47;;
10867;SDS011;62667;48.698;8.762;2024-02-21T05:08:35;8.83;;;2.77;;
10867;SDS011;62667;48.698;8.762;2024-02-21T05:11:02;5.07;;;2.63;;
10867;SDS011;62667;48.698;8.762;2024-02-21T05:13:29;8.77;;;2.93;;
10867;SDS011;62667;48.698;8.762;2024-02-21T05:15:57;4.67;;;2.83;;
10867;SDS011;62667;48.698;8.762;2024-02-21T05:18:26;6.07;;;2.60;;
10867;SDS011;62667;48.698;8.762;2024-02-21T05:20:53;5.67;;;2.90;;
10867;SDS011;62667;48.698;8.762;2024-02-21T05:23:21;7.70;;;2.77;;
10867;SDS011;62667;48.698;8.762;2024-02-21T05:25:53;6.43;;;2.47;;
10867;SDS011;62667;48.698;8.762;2024-02-21T05:28:26;6.37;;;2.80;;
10867;SDS011;62667;48.698;8.762;2024-02-21T05:30:52;6.13;;;2.90;;
10867;SDS011;62667;48.698;8.762;2024-02-21T05:33:21;5.23;;;2.50;;
10867;SDS011;62667;48.698;8.762;2024-02-21T05:35:50;4.90;;;2.70;;
10867;SDS011;62667;48.698;8.762;2024-02-21T05:38:25;7.20;;;2.53;;
10867;SDS011;62667;48.698;8.762;2024-02-21T05:40:52;4.70;;;3.03;;
10867;SDS011;62667;48.698;8.762;2024-02-21T05:43:18;4.03;;;2.63;;
10867;SDS011;62667;48.698;8.762;2024-02-21T05:45:45;8.43;;;2.93;;
10867;SDS011;62667;48.698;8.762;2024-02-21T05:48:12;10.60;;;2.47;;
10867;SDS011;62667;48.698;8.762;2024-02-21T05:50:40;5.23;;;2.67;;
10867;SDS011;62667;48.698;8.762;2024-02-21T05:53:11;4.47;;;2.70;;
10867;SDS011;62667;48.698;8.762;2024-02-21T05:55:38;4.27;;;2.27;;
10867;SDS011;62667;48.698;8.762;2024-02-21T05:58:05;4.63;;;2.37;;
10867;SDS011;62667;48.698;8.762;2024-02-21T06:00:32;4.90;;;2.80;;
10867;SDS011;62667;48.698;8.762;2024-02-21T06:02:59;5.97;;;2.57;;
10867;SDS011;62667;48.698;8.762;2024-02-21T06:05:25;4.83;;;2.70;;
10867;SDS011;62667;48.698;8.762;2024-02-21T06:07:53;3.00;;;2.30;;
10867;SDS011;62667;48.698;8.762;2024-02-21T06:10:20;3.17;;;2.13;;
10867;SDS011;62667;48.698;8.762;2024-02-21T06:12:50;6.03;;;2.67;;
10867;SDS011;62667;48.698;8.762;2024-02-21T06:15:19;5.27;;;2.40;;
10867;SDS011;62667;48.698;8.762;2024-02-21T06:17:46;2.73;;;2.50;;
10867;SDS011;62667;48.698;8.762;2024-02-21T06:20:13;5.67;;;2.47;;
10867;SDS011;62667;48.698;8.762;2024-02-21T06:22:39;9.37;;;2.83;;
10867;SDS011;62667;48.698;8.762;2024-02-21T06:25:08;4.10;;;2.83;;
10867;SDS011;62667;48.698;8.762;2024-02-21T06:27:34;10.57;;;4.07;;
10867;SDS011;62667;48.698;8.762;2024-02-21T06:30:01;5.83;;;3.67;;
10867;SDS011;62667;48.698;8.762;2024-02-21T06:32:28;5.90;;;3.17;;
10867;SDS011;62667;48.698;8.762;2024-02-21T06:34:56;4.77;;;2.63;;
10867;SDS011;62667;48.698;8.762;2024-02-21T06:37:22;8.70;;;3.33;;
10867;SDS011;62667;48.698;8.762;2024-02-21T06:39:49;5.30;;;3.30;;
10867;SDS011;62667;48.698;8.762;2024-02-21T06:42:17;7.93;;;3.60;;
10867;SDS011;62667;48.698;8.762;2024-02-21T06:44:44;8.10;;;3.50;;
10867;SDS011;62667;48.698;8.762;2024-02-21T06:47:11;9.80;;;3.27;;
10867;SDS011;62667;48.698;8.762;2024-02-21T06:49:37;7.13;;;2.77;;
10867;SDS011;62667;48.698;8.762;2024-02-21T06:52:04;7.07;;;2.40;;
10867;SDS011;62667;48.698;8.762;2024-02-21T06:54:31;5.87;;;2.57;;
10867;SDS011;62667;48.698;8.762;2024-02-21T06:56:58;5.20;;;2.50;;
10867;SDS011;62667;48.698;8.762;2024-02-21T06:59:25;7.30;;;3.10;;
10867;SDS011;62667;48.698;8.762;2024-02-21T07:01:53;4.13;;;2.20;;
10867;SDS011;62667;48.698;8.762;2024-02-21T07:04:20;3.50;;;2.70;;
10867;SDS011;62667;48.698;8.762;2024-02-21T07:06:47;4.00;;;2.87;;
10867;SDS011;62667;48.698;8.762;2024-02-21T07:09:13;6.47;;;2.80;;
10867;SDS011;62667;48.698;8.762;2024-02-21T07:11:41;4.10;;;2.30;;
10867;SDS011;62667;48.698;8.762;2024-02-21T07:14:08;8.43;;;2.67;;
10867;SDS011;62667;48.698;8.762;2024-02-21T07:16:36;6.47;;;2.93;;
10867;SDS011;62667;48.698;8.762;2024-02-21T07:19:02;8.77;;;3.50;;
10867;SDS011;62667;48.698;8.762;2024-02-21T07:21:29;7.10;;;3.83;;
10867;SDS011;62667;48.698;8.762;2024-02-21T07:23:55;6.80;;;3.33;;
10867;SDS011;62667;48.698;8.762;2024-02-21T07:26:22;13.57;;;4.10;;
10867;SDS011;62667;48.698;8.762;2024-02-21T07:28:49;6.67;;;4.13;;
10867;SDS011;62667;48.698;8.762;2024-02-21T07:31:17;11.23;;;3.90;;
10867;SDS011;62667;48.698;8.762;2024-02-21T07:33:45;8.93;;;3.60;;
10867;SDS011;62667;48.698;8.762;2024-02-21T07:36:14;7.03;;;3.77;;
10867;SDS011;62667;48.698;8.762;2024-02-21T07:38:42;6.03;;;3.13;;
10867;SDS011;62667;48.698;8.762;2024-02-21T07:41:09;6.17;;;3.43;;
10867;SDS011;62667;48.698;8.762;2024-02-21T07:43:37;5.63;;;2.67;;
10867;SDS011;62667;48.698;8.762;2024-02-21T07:46:05;11.43;;;2.40;;
10867;SDS011;62667;48.698;8.762;2024-02-21T07:48:31;7.40;;;2.60;;
10867;SDS011;62667;48.698;8.762;2024-02-21T07:50:59;5.90;;;3.13;;
10867;SDS011;62667;48.698;8.762;2024-02-21T07:53:26;5.77;;;2.90;;
10867;SDS011;62667;48.698;8.762;2024-02-21T07:55:54;9.50;;;2.67;;
10867;SDS011;62667;48.698;8.762;2024-02-21T07:58:21;7.83;;;3.47;;
10867;SDS011;62667;48.698;8.762;2024-02-21T08:00:47;14.63;;;3.37;;
10867;SDS011;62667;48.698;8.762;2024-02-21T08:03:14;6.40;;;3.03;;
10867;SDS011;62667;48.698;8.762;2024-02-21T08:05:42;3.80;;;2.17;;
10867;SDS011;62667;48.698;8.762;2024-02-21T08:08:13;4.60;;;2.10;;
10867;SDS011;62667;48.698;8.762;2024-02-21T08:10:45;7.33;;;2.90;;
10867;SDS011;62667;48.698;8.762;2024-02-21T08:13:12;2.87;;;2.03;;
10867;SDS011;62667;48.698;8.762;2024-02-21T08:15:38;3.57;;;2.50;;
10867;SDS011;62667;48.698;8.762;2024-02-21T08:18:06;4.80;;;2.50;;
10867;SDS011;62667;48.698;8.762;2024-02-21T08:20:33;5.23;;;2.60;;
10867;SDS011;62667;48.698;8.762;2024-02-21T08:23:10;3.53;;;2.50;;
10867;SDS011;62667;48.698;8.762;2024-02-21T08:25:38;4.73;;;2.53;;
10867;SDS011;62667;48.698;8.762;2024-02-21T08:28:05;8.27;;;2.50;;
10867;SDS011;62667;48.698;8.762;2024-02-21T08:30:32;6.90;;;2.20;;
10867;SDS011;62667;48.698;8.762;2024-02-21T08:32:59;6.13;;;2.20;;
10867;SDS011;62667;48.698;8.762;2024-02-21T08:35:26;9.80;;;2.47;;
10867;SDS011;62667;48.698;8.762;2024-02-21T08:37:53;4.93;;;2.20;;
10867;SDS011;62667;48.698;8.762;2024-02-21T08:40:20;4.37;;;2.13;;
10867;SDS011;62667;48.698;8.762;2024-02-21T08:42:47;5.50;;;2.20;;
10867;SDS011;62667;48.698;8.762;2024-02-21T08:45:14;8.53;;;3.17;;
10867;SDS011;62667;48.698;8.762;2024-02-21T08:47:41;4.07;;;2.10;;
10867;SDS011;62667;48.698;8.762;2024-02-21T08:50:08;3.20;;;2.13;;
10867;SDS011;62667;48.698;8.762;2024-02-21T08:52:35;5.83;;;2.30;;
10867;SDS011;62667;48.698;8.762;2024-02-21T08:55:03;3.70;;;2.30;;
10867;SDS011;62667;48.698;8.762;2024-02-21T08:57:34;5.90;;;2.27;;
10867;SDS011;62667;48.698;8.762;2024-02-21T09:00:06;3.53;;;2.20;;
10867;SDS011;62667;48.698;8.762;2024-02-21T09:02:53;4.53;;;2.30;;
10867;SDS011;62667;48.698;8.762;2024-02-21T09:05:21;2.90;;;2.20;;
10867;SDS011;62667;48.698;8.762;2024-02-21T09:07:47;4.03;;;2.07;;
10867;SDS011;62667;48.698;8.762;2024-02-21T09:10:14;4.10;;;1.93;;
10867;SDS011;62667;48.698;8.762;2024-02-21T09:12:45;5.67;;;2.07;;
10867;SDS011;62667;48.698;8.762;2024-02-21T09:15:14;5.87;;;2.53;;
10867;SDS011;62667;48.698;8.762;2024-02-21T09:17:40;4.53;;;2.20;;
10867;SDS011;62667;48.698;8.762;2024-02-21T09:20:09;5.23;;;2.30;;
10867;SDS011;62667;48.698;8.762;2024-02-21T09:22:37;4.20;;;1.97;;
10867;SDS011;62667;48.698;8.762;2024-02-21T09:25:05;3.03;;;2.00;;
10867;SDS011;62667;48.698;8.762;2024-02-21T09:27:32;5.07;;;2.50;;
10867;SDS011;62667;48.698;8.762;2024-02-21T09:30:00;7.13;;;2.13;;
10867;SDS011;62667;48.698;8.762;2024-02-21T09:32:27;6.97;;;2.70;;
10867;SDS011;62667;48.698;8.762;2024-02-21T09:34:53;7.57;;;2.30;;
10867;SDS011;62667;48.698;8.762;2024-02-21T09:37:21;2.87;;;1.90;;
10867;SDS011;62667;48.698;8.762;2024-02-21T09:39:49;5.47;;;2.50;;
10867;SDS011;62667;48.698;8.762;2024-02-21T09:42:21;2.97;;;2.03;;
10867;SDS011;62667;48.698;8.762;2024-02-21T09:44:50;4.27;;;1.90;;
10867;SDS011;62667;48.698;8.762;2024-02-21T09:47:19;2.43;;;1.93;;
10867;SDS011;62667;48.698;8.762;2024-02-21T09:49:50;3.33;;;2.10;;
10867;SDS011;62667;48.698;8.762;2024-02-21T09:52:24;6.03;;;2.13;;
10867;SDS011;62667;48.698;8.762;2024-02-21T09:54:52;8.27;;;2.70;;
10867;SDS011;62667;48.698;8.762;2024-02-21T09:57:22;6.30;;;2.33;;
10867;SDS011;62667;48.698;8.762;2024-02-21T09:59:50;4.33;;;1.87;;
10867;SDS011;62667;48.698;8.762;2024-02-21T10:02:19;5.10;;;2.23;;
10867;SDS011;62667;48.698;8.762;2024-02-21T10:04:45;5.67;;;2.40;;
10867;SDS011;62667;48.698;8.762;2024-02-21T10:07:12;4.43;;;1.93;;
10867;SDS011;62667;48.698;8.762;2024-02-21T10:09:39;4.97;;;2.10;;
10867;SDS011;62667;48.698;8.762;2024-02-21T10:12:07;6.90;;;2.83;;
10867;SDS011;62667;48.698;8.762;2024-02-21T10:14:35;10.87;;;2.27;;
10867;SDS011;62667;48.698;8.762;2024-02-21T10:17:02;3.57;;;1.93;;
10867;SDS011;62667;48.698;8.762;2024-02-21T10:19:35;4.60;;;2.20;;
10867;SDS011;62667;48.698;8.762;2024-02-21T10:22:02;3.60;;;2.60;;
10867;SDS011;62667;48.698;8.762;2024-02-21T10:24:30;3.97;;;2.13;;
10867;SDS011;62667;48.698;8.762;2024-02-21T10:27:04;4.20;;;2.50;;
10867;SDS011;62667;48.698;8.762;2024-02-21T10:29:33;3.47;;;2.00;;
10867;SDS011;62667;48.698;8.762;2024-02-21T10:32:06;2.27;;;1.77;;
10867;SDS011;62667;48.698;8.762;2024-02-21T10:34:35;6.87;;;2.37;;
10867;SDS011;62667;48.698;8.762;2024-02-21T10:37:02;4.20;;;1.70;;
10867;SDS011;62667;48.698;8.762;2024-02-21T10:39:39;2.97;;;1.70;;
10867;SDS011;62667;48.698;8.762;2024-02-21T10:42:10;3.13;;;1.83;;
10867;SDS011;62667;48.698;8.762;2024-02-21T10:44:43;5.07;;;2.53;;
10867;SDS011;62667;48.698;8.762;2024-02-21T10:47:16;5.03;;;2.13;;
10867;SDS011;62667;48.698;8.762;2024-02-21T10:49:49;2.27;;;1.70;;
10867;SDS011;62667;48.698;8.762;2024-02-21T10:52:25;5.17;;;2.00;;
10867;SDS011;62667;48.698;8.762;2024-02-21T10:54:59;3.10;;;1.77;;
10867;SDS011;62667;48.698;8.762;2024-02-21T10:57:35;4.67;;;1.93;;
10867;SDS011;62667;48.698;8.762;2024-02-21T11:00:04;4.43;;;2.53;;
10867;SDS011;62667;48.698;8.762;2024-02-21T11:02:33;5.90;;;2.30;;
10867;SDS011;62667;48.698;8.762;2024-02-21T11:05:02;2.40;;;1.93;;
10867;SDS011;62667;48.698;8.762;2024-02-21T11:07:30;3.07;;;2.00;;
10867;SDS011;62667;48.698;8.762;2024-02-21T11:10:03;8.43;;;2.10;;
10867;SDS011;62667;48.698;8.762;2024-02-21T11:12:33;5.33;;;2.00;;
10867;SDS011;62667;48.698;8.762;2024-02-21T11:15:06;4.63;;;2.10;;
10867;SDS011;62667;48.698;8.762;2024-02-21T11:17:32;6.57;;;2.43;;
10867;SDS011;62667;48.698;8.762;2024-02-21T11:20:11;3.67;;;1.70;;
10867;SDS011;62667;48.698;8.762;2024-02-21T11:22:41;2.87;;;1.83;;
10867;SDS011;62667;48.698;8.762;2024-02-21T11:25:08;5.67;;;1.80;;
10867;SDS011;62667;48.698;8.762;2024-02-21T11:27:36;3.00;;;1.90;;
10867;SDS011;62667;48.698;8.762;2024-02-21T11:30:04;4.90;;;2.20;;
10867;SDS011;62667;48.698;8.762;2024-02-21T11:32:34;3.23;;;1.80;;
10867;SDS011;62667;48.698;8.762;2024-02-21T11:35:02;1.67;;;1.50;;
10867;SDS011;62667;48.698;8.762;2024-02-21T11:37:31;7.30;;;1.73;;
10867;SDS011;62667;48.698;8.762;2024-02-21T11:40:03;4.10;;;1.80;;
10867;SDS011;62667;48.698;8.762;2024-02-21T11:42:36;4.17;;;1.80;;
10867;SDS011;62667;48.698;8.762;2024-02-21T11:45:03;4.53;;;1.60;;
10867;SDS011;62667;48.698;8.762;2024-02-21T11:47:33;3.03;;;1.60;;
10867;SDS011;62667;48.698;8.762;2024-02-21T11:50:04;2.67;;;1.80;;
10867;SDS011;62667;48.698;8.762;2024-02-21T11:52:32;2.23;;;1.53;;
10867;SDS011;62667;48.698;8.762;2024-02-21T11:54:59;2.63;;;1.80;;
10867;SDS011;62667;48.698;8.762;2024-02-21T11:57:29;4.57;;;1.73;;
10867;SDS011;62667;48.698;8.762;2024-02-21T11:59:56;2.30;;;1.67;;
10867;SDS011;62667;48.698;8.762;2024-02-21T12:02:23;2.13;;;1.50;;
10867;SDS011;62667;48.698;8.762;2024-02-21T12:04:49;2.07;;;1.40;;
10867;SDS011;62667;48.698;8.762;2024-02-21T12:07:16;1.70;;;1.30;;
10867;SDS011;62667;48.698;8.762;2024-02-21T12:09:45;1.77;;;1.23;;
10867;SDS011;62667;48.698;8.762;2024-02-21T12:12:12;2.33;;;1.17;;
10867;SDS011;62667;48.698;8.762;2024-02-21T12:14:40;2.03;;;1.30;;
10867;SDS011;62667;48.698;8.762;2024-02-21T12:17:06;1.63;;;1.30;;
10867;SDS011;62667;48.698;8.762;2024-02-21T12:19:33;4.37;;;1.33;;
10867;SDS011;62667;48.698;8.762;2024-02-21T12:22:00;2.40;;;1.30;;
10867;SDS011;62667;48.698;8.762;2024-02-21T12:24:30;1.10;;;1.00;;
10867;SDS011;62667;48.698;8.762;2024-02-21T12:26:59;1.10;;;1.00;;
10867;SDS011;62667;48.698;8.762;2024-02-21T12:29:28;3.57;;;1.37;;
10867;SDS011;62667;48.698;8.762;2024-02-21T12:31:55;3.80;;;1.40;;
10867;SDS011;62667;48.698;8.762;2024-02-21T12:34:23;1.10;;;1.00;;
10867;SDS011;62667;48.698;8.762;2024-02-21T12:36:50;3.00;;;1.20;;
10867;SDS011;62667;48.698;8.762;2024-02-21T12:39:20;1.80;;;1.13;;
10867;SDS011;62667;48.698;8.762;2024-02-21T12:41:46;2.40;;;1.20;;
10867;SDS011;62667;48.698;8.762;2024-02-21T12:44:14;1.40;;;1.13;;
10867;SDS011;62667;48.698;8.762;2024-02-21T12:46:43;3.00;;;1.40;;
10867;SDS011;62667;48.698;8.762;2024-02-21T12:49:12;1.30;;;1.20;;
10867;SDS011;62667;48.698;8.762;2024-02-21T12:51:39;1.20;;;1.10;;
10867;SDS011;62667;48.698;8.762;2024-02-21T12:54:07;1.20;;;1.10;;
10867;SDS011;62667;48.698;8.762;2024-02-21T12:56:36;1.23;;;1.13;;
10867;SDS011;62667;48.698;8.762;2024-02-21T12:59:03;1.27;;;1.17;;
10867;SDS011;62667;48.698;8.762;2024-02-21T13:01:30;1.47;;;1.20;;
10867;SDS011;62667;48.698;8.762;2024-02-21T13:03:57;1.30;;;1.10;;
10867;SDS011;62667;48.698;8.762;2024-02-21T13:06:26;1.40;;;1.20;;
10867;SDS011;62667;48.698;8.762;2024-02-21T13:08:53;3.00;;;1.30;;
10867;SDS011;62667;48.698;8.762;2024-02-21T13:11:20;1.00;;;1.00;;
10867;SDS011;62667;48.698;8.762;2024-02-21T13:14:02;2.60;;;1.20;;
10867;SDS011;62667;48.698;8.762;2024-02-21T13:16:34;1.47;;;1.10;;
10867;SDS011;62667;48.698;8.762;2024-02-21T13:19:08;1.63;;;1.20;;
10867;SDS011;62667;48.698;8.762;2024-02-21T13:21:35;3.03;;;1.33;;
10867;SDS011;62667;48.698;8.762;2024-02-21T13:24:02;1.17;;;1.07;;
10867;SDS011;62667;48.698;8.762;2024-02-21T13:26:29;1.03;;;1.00;;
10867;SDS011;62667;48.698;8.762;2024-02-21T13:28:58;1.00;;;1.00;;
10867;SDS011;62667;48.698;8.762;2024-02-21T13:31:25;3.03;;;1.00;;
10867;SDS011;62667;48.698;8.762;2024-02-21T13:33:53;1.70;;;1.03;;
10867;SDS011;62667;48.698;8.762;2024-02-21T13:36:19;1.03;;;1.00;;
10867;SDS011;62667;48.698;8.762;2024-02-21T13:38:46;1.07;;;0.90;;
10867;SDS011;62667;48.698;8.762;2024-02-21T13:41:13;1.23;;;0.87;;
10867;SDS011;62667;48.698;8.762;2024-02-21T13:43:40;0.93;;;0.90;;
10867;SDS011;62667;48.698;8.762;2024-02-21T13:46:07;0.80;;;0.80;;
10867;SDS011;62667;48.698;8.762;2024-02-21T13:48:35;1.50;;;1.00;;
10867;SDS011;62667;48.698;8.762;2024-02-21T13:51:03;2.83;;;1.10;;
10867;SDS011;62667;48.698;8.762;2024-02-21T13:53:30;0.90;;;0.90;;
10867;SDS011;62667;48.698;8.762;2024-02-21T13:55:57;1.00;;;1.00;;
10867;SDS011;62667;48.698;8.762;2024-02-21T13:58:24;1.00;;;1.00;;
10867;SDS011;62667;48.698;8.762;2024-02-21T14:00:53;1.33;;;1.10;;
10867;SDS011;62667;48.698;8.762;2024-02-21T14:03:21;1.43;;;0.90;;
10867;SDS011;62667;48.698;8.762;2024-02-21T14:05:48;1.10;;;0.90;;
10867;SDS011;62667;48.698;8.762;2024-02-21T14:08:18;1.00;;;0.97;;
10867;SDS011;62667;48.698;8.762;2024-02-21T14:10:44;1.27;;;1.17;;
10867;SDS011;62667;48.698;8.762;2024-02-21T14:13:15;1.13;;;1.03;;
10867;SDS011;62667;48.698;8.762;2024-02-21T14:15:43;2.20;;;1.03;;
10867;SDS011;62667;48.698;8.762;2024-02-21T14:18:11;0.97;;;0.97;;
10867;SDS011;62667;48.698;8.762;2024-02-21T14:20:41;1.00;;;0.90;;
10867;SDS011;62667;48.698;8.762;2024-02-21T14:23:09;1.10;;;1.00;;
10867;SDS011;62667;48.698;8.762;2024-02-21T14:25:37;1.37;;;1.13;;
10867;SDS011;62667;48.698;8.762;2024-02-21T14:28:04;1.20;;;1.00;;
10867;SDS011;62667;48.698;8.762;2024-02-21T14:30:31;1.20;;;1.10;;
10867;SDS011;62667;48.698;8.762;2024-02-21T14:32:58;1.23;;;1.00;;
10867;SDS011;62667;48.698;8.762;2024-02-21T14:35:25;1.27;;;1.17;;
10867;SDS011;62667;48.698;8.762;2024-02-21T14:37:55;1.27;;;0.90;;
10867;SDS011;62667;48.698;8.762;2024-02-21T14:40:26;1.53;;;1.10;;
10867;SDS011;62667;48.698;8.762;2024-02-21T14:42:56;1.33;;;1.10;;
10867;SDS011;62667;48.698;8.762;2024-02-21T14:45:23;0.87;;;0.87;;
10867;SDS011;62667;48.698;8.762;2024-02-21T14:47:49;0.90;;;0.90;;
10867;SDS011;62667;48.698;8.762;2024-02-21T14:50:19;2.00;;;1.03;;
10867;SDS011;62667;48.698;8.762;2024-02-21T14:52:48;1.10;;;1.00;;
10867;SDS011;62667;48.698;8.762;2024-02-21T14:55:15;1.30;;;1.10;;